sensor_id;sensor_type;location;lat;lon;timestamp;pressure;altitude;pressure_sealevel;temperature;humidity
43701;BME280;58809;47.984;7.964;2023-12-14T00:02:01;96175.16;;;15.42;66.12
43701;BME280;58809;47.984;7.964;2023-12-14T00:05:03;96178.88;;;15.41;66.24
43701;BME280;58809;47.984;7.964;2023-12-14T00:08:05;96186.88;;;15.41;66.18
43701;BME280;58809;47.984;7.964;2023-12-14T00:11:08;96185.00;;;15.42;66.21
43701;BME280;58809;47.984;7.964;2023-12-14T00:14:11;96194.88;;;15.41;66.02
43701;BME280;58809;47.984;7.964;2023-12-14T00:17:12;96201.00;;;15.42;66.15
43701;BME280;58809;47.984;7.964;2023-12-14T00:20:14;96201.00;;;15.42;65.98
43701;BME280;58809;47.984;7.964;2023-12-14T00:23:16;96209.81;;;15.42;66.22
43701;BME280;58809;47.984;7.964;2023-12-14T00:26:18;96208.44;;;15.39;66.29
43701;BME280;58809;47.984;7.964;2023-12-14T00:29:19;96209.22;;;15.40;65.95
43701;BME280;58809;47.984;7.964;2023-12-14T00:32:21;96217.00;;;15.42;65.93
43701;BME280;58809;47.984;7.964;2023-12-14T00:35:22;96221.75;;;15.39;65.92
43701;BME280;58809;47.984;7.964;2023-12-14T00:38:24;96219.91;;;15.40;65.80
43701;BME280;58809;47.984;7.964;2023-12-14T00:41:25;96226.84;;;15.41;65.82
43701;BME280;58809;47.984;7.964;2023-12-14T00:44:27;96238.56;;;15.40;66.00
43701;BME280;58809;47.984;7.964;2023-12-14T00:47:29;96236.72;;;15.40;66.07
43701;BME280;58809;47.984;7.964;2023-12-14T00:50:30;96245.75;;;15.39;65.79
43701;BME280;58809;47.984;7.964;2023-12-14T00:53:32;96252.94;;;15.39;66.01
43701;BME280;58809;47.984;7.964;2023-12-14T00:56:34;96255.59;;;15.39;65.71
43701;BME280;58809;47.984;7.964;2023-12-14T00:59:35;96254.56;;;15.40;65.64
43701;BME280;58809;47.984;7.964;2023-12-14T01:02:37;96258.28;;;15.39;65.80
43701;BME280;58809;47.984;7.964;2023-12-14T01:05:39;96262.53;;;15.40;65.57
43701;BME280;58809;47.984;7.964;2023-12-14T01:08:40;96265.22;;;15.40;65.73
43701;BME280;58809;47.984;7.964;2023-12-14T01:11:42;96273.22;;;15.40;65.67
43701;BME280;58809;47.984;7.964;2023-12-14T01:14:44;96275.88;;;15.40;65.50
43701;BME280;58809;47.984;7.964;2023-12-14T01:17:45;96283.88;;;15.40;65.73
43701;BME280;58809;47.984;7.964;2023-12-14T01:20:47;96283.06;;;15.39;65.70
43701;BME280;58809;47.984;7.964;2023-12-14T01:23:48;96296.41;;;15.39;65.65
43701;BME280;58809;47.984;7.964;2023-12-14T01:26:50;96294.53;;;15.40;65.48
43701;BME280;58809;47.984;7.964;2023-12-14T01:29:52;96303.59;;;15.39;65.32
43701;BME280;58809;47.984;7.964;2023-12-14T01:32:53;96306.25;;;15.39;65.70
43701;BME280;58809;47.984;7.964;2023-12-14T01:35:55;96317.72;;;15.39;65.40
43701;BME280;58809;47.984;7.964;2023-12-14T01:38:57;96321.41;;;15.38;65.50
43701;BME280;58809;47.984;7.964;2023-12-14T01:41:58;96326.75;;;15.38;65.48
43701;BME280;58809;47.984;7.964;2023-12-14T01:45:00;96327.59;;;15.39;65.57
43701;BME280;58809;47.984;7.964;2023-12-14T01:48:01;96330.25;;;15.39;65.37
43701;BME280;58809;47.984;7.964;2023-12-14T01:51:03;96331.84;;;15.40;65.23
43701;BME280;58809;47.984;7.964;2023-12-14T01:54:05;96340.06;;;15.38;65.40
43701;BME280;58809;47.984;7.964;2023-12-14T01:57:06;96338.25;;;15.39;65.41
43701;BME280;58809;47.984;7.964;2023-12-14T02:00:23;96353.19;;;15.40;65.23
43701;BME280;58809;47.984;7.964;2023-12-14T02:03:27;96351.56;;;15.39;65.13
43701;BME280;58809;47.984;7.964;2023-12-14T02:06:29;96356.06;;;15.38;65.35
43701;BME280;58809;47.984;7.964;2023-12-14T02:09:31;96361.41;;;15.38;65.19
43701;BME280;58809;47.984;7.964;2023-12-14T02:12:32;96361.41;;;15.38;64.98
43701;BME280;58809;47.984;7.964;2023-12-14T02:15:35;96369.41;;;15.38;65.00
43701;BME280;58809;47.984;7.964;2023-12-14T02:18:37;96365.13;;;15.37;65.14
43701;BME280;58809;47.984;7.964;2023-12-14T02:21:39;96367.78;;;15.37;65.03
43701;BME280;58809;47.984;7.964;2023-12-14T02:24:40;96369.41;;;15.38;65.15
43701;BME280;58809;47.984;7.964;2023-12-14T02:27:42;96381.94;;;15.38;64.88
43701;BME280;58809;47.984;7.964;2023-12-14T02:30:43;96371.25;;;15.38;65.11
43701;BME280;58809;47.984;7.964;2023-12-14T02:33:45;96381.13;;;15.37;64.98
43701;BME280;58809;47.984;7.964;2023-12-14T02:36:47;96383.78;;;15.37;64.83
43701;BME280;58809;47.984;7.964;2023-12-14T02:39:48;96384.81;;;15.36;64.73
43701;BME280;58809;47.984;7.964;2023-12-14T02:42:50;96383.00;;;15.37;64.66
43701;BME280;58809;47.984;7.964;2023-12-14T02:45:52;96396.31;;;15.37;64.92
43701;BME280;58809;47.984;7.964;2023-12-14T02:48:54;96408.00;;;15.36;64.82
43701;BME280;58809;47.984;7.964;2023-12-14T02:51:55;96398.97;;;15.37;64.69
43701;BME280;58809;47.984;7.964;2023-12-14T02:54:57;96404.31;;;15.37;64.95
43701;BME280;58809;47.984;7.964;2023-12-14T02:57:59;96410.66;;;15.36;64.67
43701;BME280;58809;47.984;7.964;2023-12-14T03:01:00;96413.34;;;15.36;64.62
43701;BME280;58809;47.984;7.964;2023-12-14T03:04:02;96421.34;;;15.36;64.66
43701;BME280;58809;47.984;7.964;2023-12-14T03:07:04;96422.97;;;15.37;64.64
43701;BME280;58809;47.984;7.964;2023-12-14T03:10:06;96433.63;;;15.37;64.71
43701;BME280;58809;47.984;7.964;2023-12-14T03:13:07;96432.81;;;15.36;64.52
43701;BME280;58809;47.984;7.964;2023-12-14T03:16:09;96431.41;;;15.34;64.53
43701;BME280;58809;47.984;7.964;2023-12-14T03:19:11;96441.84;;;15.35;64.57
43701;BME280;58809;47.984;7.964;2023-12-14T03:22:12;96442.66;;;15.36;64.42
43701;BME280;58809;47.984;7.964;2023-12-14T03:25:14;96446.13;;;15.36;64.75
43701;BME280;58809;47.984;7.964;2023-12-14T03:28:16;96452.28;;;15.37;64.38
43701;BME280;58809;47.984;7.964;2023-12-14T03:31:17;96452.53;;;15.35;64.61
43701;BME280;58809;47.984;7.964;2023-12-14T03:34:19;96464.78;;;15.36;64.41
43701;BME280;58809;47.984;7.964;2023-12-14T03:37:21;96456.00;;;15.36;64.34
43701;BME280;58809;47.984;7.964;2023-12-14T03:40:23;96461.31;;;15.36;64.45
43701;BME280;58809;47.984;7.964;2023-12-14T03:43:24;96462.38;;;15.35;64.59
43701;BME280;58809;47.984;7.964;2023-12-14T03:46:26;96473.03;;;15.35;64.37
43701;BME280;58809;47.984;7.964;2023-12-14T03:49:28;96474.06;;;15.34;64.31
43701;BME280;58809;47.984;7.964;2023-12-14T03:52:29;96479.41;;;15.34;64.39
43701;BME280;58809;47.984;7.964;2023-12-14T03:55:33;96486.38;;;15.35;64.36
43701;BME280;58809;47.984;7.964;2023-12-14T03:58:35;96491.69;;;15.35;64.45
43701;BME280;58809;47.984;7.964;2023-12-14T04:01:37;96494.38;;;15.35;64.29
43701;BME280;58809;47.984;7.964;2023-12-14T04:04:41;96503.38;;;15.34;64.37
43701;BME280;58809;47.984;7.964;2023-12-14T04:07:43;96507.69;;;15.35;64.29
43701;BME280;58809;47.984;7.964;2023-12-14T04:10:45;96521.03;;;15.35;64.42
43701;BME280;58809;47.984;7.964;2023-12-14T04:13:47;96521.03;;;15.35;64.12
43701;BME280;58809;47.984;7.964;2023-12-14T04:16:51;96527.97;;;15.36;64.25
43701;BME280;58809;47.984;7.964;2023-12-14T04:19:53;96529.03;;;15.35;64.20
43701;BME280;58809;47.984;7.964;2023-12-14T04:22:55;96530.03;;;15.34;64.34
43701;BME280;58809;47.984;7.964;2023-12-14T04:25:57;96537.25;;;15.33;64.16
43701;BME280;58809;47.984;7.964;2023-12-14T04:28:58;96546.03;;;15.34;64.00
43701;BME280;58809;47.984;7.964;2023-12-14T04:32:00;96547.69;;;15.35;64.25
43701;BME280;58809;47.984;7.964;2023-12-14T04:35:02;96547.69;;;15.35;64.05
43701;BME280;58809;47.984;7.964;2023-12-14T04:38:03;96558.34;;;15.35;64.30
43701;BME280;58809;47.984;7.964;2023-12-14T04:41:05;96552.16;;;15.34;64.21
43701;BME280;58809;47.984;7.964;2023-12-14T04:44:07;96556.69;;;15.34;64.10
43701;BME280;58809;47.984;7.964;2023-12-14T04:47:08;96567.38;;;15.34;64.03
43701;BME280;58809;47.984;7.964;2023-12-14T04:50:10;96564.69;;;15.34;63.93
43701;BME280;58809;47.984;7.964;2023-12-14T04:53:12;96577.22;;;15.33;63.93
43701;BME280;58809;47.984;7.964;2023-12-14T04:56:13;96574.56;;;15.33;64.13
43701;BME280;58809;47.984;7.964;2023-12-14T04:59:15;96580.69;;;15.34;63.95
43701;BME280;58809;47.984;7.964;2023-12-14T05:02:17;96582.56;;;15.33;63.96
43701;BME280;58809;47.984;7.964;2023-12-14T05:05:19;96587.03;;;15.33;63.84
43701;BME280;58809;47.984;7.964;2023-12-14T05:08:21;96590.56;;;15.33;64.02
43701;BME280;58809;47.984;7.964;2023-12-14T05:11:23;96603.88;;;15.33;64.02
43701;BME280;58809;47.984;7.964;2023-12-14T05:14:24;96614.53;;;15.33;63.84
43701;BME280;58809;47.984;7.964;2023-12-14T05:17:26;96619.88;;;15.33;63.99
43701;BME280;58809;47.984;7.964;2023-12-14T05:20:27;96619.88;;;15.33;64.11
43701;BME280;58809;47.984;7.964;2023-12-14T05:23:29;96632.38;;;15.33;63.93
43701;BME280;58809;47.984;7.964;2023-12-14T05:26:31;96638.75;;;15.32;63.98
43701;BME280;58809;47.984;7.964;2023-12-14T05:29:32;96639.56;;;15.32;63.94
43701;BME280;58809;47.984;7.964;2023-12-14T05:32:34;96637.94;;;15.31;63.92
43701;BME280;58809;47.984;7.964;2023-12-14T05:35:36;96643.50;;;15.30;63.99
43701;BME280;58809;47.984;7.964;2023-12-14T05:38:39;96640.84;;;15.30;64.00
43701;BME280;58809;47.984;7.964;2023-12-14T05:41:41;96651.50;;;15.30;63.94
43701;BME280;58809;47.984;7.964;2023-12-14T05:44:43;96657.63;;;15.30;63.89
43701;BME280;58809;47.984;7.964;2023-12-14T05:47:46;96666.66;;;15.29;63.89
43701;BME280;58809;47.984;7.964;2023-12-14T05:50:48;96661.31;;;15.29;63.78
43701;BME280;58809;47.984;7.964;2023-12-14T05:53:49;96672.22;;;15.28;63.90
43701;BME280;58809;47.984;7.964;2023-12-14T05:56:51;96683.69;;;15.28;63.83
43701;BME280;58809;47.984;7.964;2023-12-14T05:59:53;96682.88;;;15.28;63.85
43701;BME280;58809;47.984;7.964;2023-12-14T06:02:54;96696.22;;;15.28;63.70
43701;BME280;58809;47.984;7.964;2023-12-14T06:05:56;96697.59;;;15.30;63.72
43701;BME280;58809;47.984;7.964;2023-12-14T06:08:58;96703.91;;;15.36;64.16
43701;BME280;58809;47.984;7.964;2023-12-14T06:12:03;96710.88;;;15.37;64.06
43701;BME280;58809;47.984;7.964;2023-12-14T06:15:05;96720.69;;;15.36;64.20
43701;BME280;58809;47.984;7.964;2023-12-14T06:18:07;96723.63;;;15.35;63.93
43701;BME280;58809;47.984;7.964;2023-12-14T06:21:11;96732.41;;;15.35;64.23
43701;BME280;58809;47.984;7.964;2023-12-14T06:24:13;96738.78;;;15.34;64.20
43701;BME280;58809;47.984;7.964;2023-12-14T06:27:14;96745.75;;;15.35;64.21
43701;BME280;58809;47.984;7.964;2023-12-14T06:30:16;96757.22;;;15.36;64.05
43701;BME280;58809;47.984;7.964;2023-12-14T06:33:18;96753.97;;;15.34;63.96
43701;BME280;58809;47.984;7.964;2023-12-14T06:36:19;96765.81;;;15.38;64.45
43701;BME280;58809;47.984;7.964;2023-12-14T06:39:21;96769.00;;;15.47;65.07
43701;BME280;58809;47.984;7.964;2023-12-14T06:42:27;96773.06;;;15.49;65.47
43701;BME280;58809;47.984;7.964;2023-12-14T06:45:29;96776.56;;;15.50;65.40
43701;BME280;58809;47.984;7.964;2023-12-14T06:48:30;96782.47;;;15.52;65.21
43701;BME280;58809;47.984;7.964;2023-12-14T06:51:32;96788.41;;;15.54;65.14
43701;BME280;58809;47.984;7.964;2023-12-14T06:54:33;96785.28;;;15.57;65.51
43701;BME280;58809;47.984;7.964;2023-12-14T06:57:35;96796.56;;;15.59;65.22
43701;BME280;58809;47.984;7.964;2023-12-14T07:00:37;96794.69;;;15.59;65.42
43701;BME280;58809;47.984;7.964;2023-12-14T07:03:42;96802.25;;;15.63;65.25
43701;BME280;58809;47.984;7.964;2023-12-14T07:06:52;96815.34;;;15.64;65.48
43701;BME280;58809;47.984;7.964;2023-12-14T07:09:53;96819.44;;;15.67;65.83
43701;BME280;58809;47.984;7.964;2023-12-14T07:12:55;96825.34;;;15.69;65.59
43701;BME280;58809;47.984;7.964;2023-12-14T07:15:57;96829.88;;;15.68;65.55
43701;BME280;58809;47.984;7.964;2023-12-14T07:18:58;96829.50;;;15.65;65.41
43701;BME280;58809;47.984;7.964;2023-12-14T07:22:00;96836.78;;;15.57;65.35
43701;BME280;58809;47.984;7.964;2023-12-14T07:25:02;96845.22;;;15.54;65.74
43701;BME280;58809;47.984;7.964;2023-12-14T07:28:04;96848.47;;;15.56;65.75
43701;BME280;58809;47.984;7.964;2023-12-14T07:31:06;96850.91;;;15.58;65.83
43701;BME280;58809;47.984;7.964;2023-12-14T07:34:08;96862.75;;;15.62;66.14
43701;BME280;58809;47.984;7.964;2023-12-14T07:37:09;96856.03;;;15.59;66.41
43701;BME280;58809;47.984;7.964;2023-12-14T07:40:12;96869.97;;;15.62;66.25
43701;BME280;58809;47.984;7.964;2023-12-14T07:43:14;96871.00;;;15.61;66.47
43701;BME280;58809;47.984;7.964;2023-12-14T07:46:16;96873.88;;;15.59;66.52
43701;BME280;58809;47.984;7.964;2023-12-14T07:49:18;96885.38;;;15.59;66.51
43701;BME280;58809;47.984;7.964;2023-12-14T07:52:21;96896.25;;;15.58;66.79
43701;BME280;58809;47.984;7.964;2023-12-14T07:55:23;96903.44;;;15.57;66.63
43701;BME280;58809;47.984;7.964;2023-12-14T07:58:24;96914.09;;;15.57;66.79
43701;BME280;58809;47.984;7.964;2023-12-14T08:01:27;96909.00;;;15.56;66.83
43701;BME280;58809;47.984;7.964;2023-12-14T08:04:29;96914.31;;;15.56;66.83
43701;BME280;58809;47.984;7.964;2023-12-14T08:07:33;96907.13;;;15.56;66.91
43701;BME280;58809;47.984;7.964;2023-12-14T08:10:35;96912.47;;;15.56;66.89
43701;BME280;58809;47.984;7.964;2023-12-14T08:13:37;96927.66;;;15.56;66.89
43701;BME280;58809;47.984;7.964;2023-12-14T08:16:40;96943.06;;;15.54;66.62
43701;BME280;58809;47.984;7.964;2023-12-14T08:19:42;96944.09;;;15.53;66.29
43701;BME280;58809;47.984;7.964;2023-12-14T08:22:44;96946.16;;;15.51;66.29
43701;BME280;58809;47.984;7.964;2023-12-14T08:25:46;96945.34;;;15.50;66.45
43701;BME280;58809;47.984;7.964;2023-12-14T08:28:48;96957.03;;;15.49;66.17
43701;BME280;58809;47.984;7.964;2023-12-14T08:31:50;96969.56;;;15.49;65.88
43701;BME280;58809;47.984;7.964;2023-12-14T08:34:51;96979.41;;;15.48;65.74
43701;BME280;58809;47.984;7.964;2023-12-14T08:37:54;96992.75;;;15.48;65.77
43701;BME280;58809;47.984;7.964;2023-12-14T08:40:56;96989.28;;;15.48;65.94
43701;BME280;58809;47.984;7.964;2023-12-14T08:43:57;96999.94;;;15.48;65.87
43701;BME280;58809;47.984;7.964;2023-12-14T08:46:59;97003.63;;;15.47;65.85
43701;BME280;58809;47.984;7.964;2023-12-14T08:50:01;97012.44;;;15.47;65.75
43701;BME280;58809;47.984;7.964;2023-12-14T08:53:02;97016.16;;;15.46;65.85
43701;BME280;58809;47.984;7.964;2023-12-14T08:56:06;97025.78;;;15.47;65.80
43701;BME280;58809;47.984;7.964;2023-12-14T08:59:09;97028.44;;;15.47;65.87
43701;BME280;58809;47.984;7.964;2023-12-14T09:02:11;97030.28;;;15.47;65.80
43701;BME280;58809;47.984;7.964;2023-12-14T09:05:13;97039.09;;;15.47;65.61
43701;BME280;58809;47.984;7.964;2023-12-14T09:08:17;97048.97;;;15.47;65.79
43701;BME280;58809;47.984;7.964;2023-12-14T09:11:19;97057.78;;;15.47;65.73
43701;BME280;58809;47.984;7.964;2023-12-14T09:14:20;97063.09;;;15.47;65.65
43701;BME280;58809;47.984;7.964;2023-12-14T09:17:22;97063.09;;;15.47;65.56
43701;BME280;58809;47.984;7.964;2023-12-14T09:20:24;97075.22;;;15.50;65.99
43701;BME280;58809;47.984;7.964;2023-12-14T09:23:26;97079.56;;;15.44;65.97
43701;BME280;58809;47.984;7.964;2023-12-14T09:26:27;97083.25;;;15.43;66.05
43701;BME280;58809;47.984;7.964;2023-12-14T09:29:29;97084.03;;;15.44;65.86
43701;BME280;58809;47.984;7.964;2023-12-14T09:32:31;97089.16;;;15.45;65.95
43701;BME280;58809;47.984;7.964;2023-12-14T09:35:32;97077.09;;;15.43;66.00
43701;BME280;58809;47.984;7.964;2023-12-14T09:38:34;97094.28;;;15.47;65.55
43701;BME280;58809;47.984;7.964;2023-12-14T09:41:38;97088.97;;;15.47;65.53
43701;BME280;58809;47.984;7.964;2023-12-14T09:44:41;97096.16;;;15.46;65.46
43701;BME280;58809;47.984;7.964;2023-12-14T09:47:46;97104.97;;;15.47;65.42
43701;BME280;58809;47.984;7.964;2023-12-14T09:50:49;97109.28;;;15.48;65.30
43701;BME280;58809;47.984;7.964;2023-12-14T09:53:50;97115.41;;;15.48;64.96
43701;BME280;58809;47.984;7.964;2023-12-14T09:56:54;97119.69;;;15.49;65.09
43701;BME280;58809;47.984;7.964;2023-12-14T09:59:56;97126.69;;;15.50;64.85
43701;BME280;58809;47.984;7.964;2023-12-14T10:03:17;97128.31;;;15.51;64.62
43701;BME280;58809;47.984;7.964;2023-12-14T10:06:19;97132.00;;;15.50;64.88
43701;BME280;58809;47.984;7.964;2023-12-14T10:09:24;97134.69;;;15.50;64.63
43701;BME280;58809;47.984;7.964;2023-12-14T10:12:25;97146.38;;;15.49;64.54
43701;BME280;58809;47.984;7.964;2023-12-14T10:15:27;97144.75;;;15.48;64.49
43701;BME280;58809;47.984;7.964;2023-12-14T10:18:31;97149.03;;;15.49;64.48
43701;BME280;58809;47.984;7.964;2023-12-14T10:21:35;97150.88;;;15.49;64.45
43701;BME280;58809;47.984;7.964;2023-12-14T10:24:37;97157.03;;;15.49;64.41
43701;BME280;58809;47.984;7.964;2023-12-14T10:27:39;97158.69;;;15.50;64.59
43701;BME280;58809;47.984;7.964;2023-12-14T10:30:41;97154.16;;;15.51;64.14
43701;BME280;58809;47.984;7.964;2023-12-14T10:33:43;97165.22;;;15.54;64.33
43701;BME280;58809;47.984;7.964;2023-12-14T10:36:45;97168.09;;;15.53;63.92
43701;BME280;58809;47.984;7.964;2023-12-14T10:39:49;97165.22;;;15.54;64.02
43701;BME280;58809;47.984;7.964;2023-12-14T10:42:52;97168.94;;;15.53;64.40
43701;BME280;58809;47.984;7.964;2023-12-14T10:45:56;97184.94;;;15.53;64.43
43701;BME280;58809;47.984;7.964;2023-12-14T10:49:00;97180.41;;;15.54;64.86
43701;BME280;58809;47.984;7.964;2023-12-14T10:52:03;97182.25;;;15.53;64.66
43701;BME280;58809;47.984;7.964;2023-12-14T10:55:11;97190.03;;;15.55;64.87
43701;BME280;58809;47.984;7.964;2023-12-14T10:58:16;97182.25;;;15.53;65.00
43701;BME280;58809;47.984;7.964;2023-12-14T11:01:22;97188.19;;;15.55;64.85
43701;BME280;58809;47.984;7.964;2023-12-14T11:04:28;97202.56;;;15.54;64.92
43701;BME280;58809;47.984;7.964;2023-12-14T11:10:53;97213.81;;;15.56;64.79
43701;BME280;58809;47.984;7.964;2023-12-14T11:13:58;97206.03;;;15.55;64.73
43701;BME280;58809;47.984;7.964;2023-12-14T11:17:06;97214.88;;;15.55;64.58
43701;BME280;58809;47.984;7.964;2023-12-14T11:20:24;97223.88;;;15.54;64.69
43701;BME280;58809;47.984;7.964;2023-12-14T11:26:27;97222.28;;;15.53;64.58
43701;BME280;58809;47.984;7.964;2023-12-14T11:29:30;97227.38;;;15.55;64.27
43701;BME280;58809;47.984;7.964;2023-12-14T11:32:32;97231.06;;;15.54;64.41
43701;BME280;58809;47.984;7.964;2023-12-14T11:35:34;97226.56;;;15.54;64.44
43701;BME280;58809;47.984;7.964;2023-12-14T11:38:35;97234.56;;;15.54;64.27
43701;BME280;58809;47.984;7.964;2023-12-14T11:41:37;97239.88;;;15.54;64.41
43701;BME280;58809;47.984;7.964;2023-12-14T11:44:40;97245.22;;;15.54;64.47
43701;BME280;58809;47.984;7.964;2023-12-14T11:47:42;97251.38;;;15.55;64.16
43701;BME280;58809;47.984;7.964;2023-12-14T11:50:45;97256.94;;;15.53;64.40
43701;BME280;58809;47.984;7.964;2023-12-14T11:53:47;97257.94;;;15.52;64.40
43701;BME280;58809;47.984;7.964;2023-12-14T11:56:52;97265.97;;;15.52;64.13
43701;BME280;58809;47.984;7.964;2023-12-14T11:59:58;97272.94;;;15.53;64.40
43701;BME280;58809;47.984;7.964;2023-12-14T12:06:19;97276.81;;;15.51;64.20
43701;BME280;58809;47.984;7.964;2023-12-14T12:09:41;97280.31;;;15.51;64.09
43701;BME280;58809;47.984;7.964;2023-12-14T12:12:43;97280.31;;;15.51;63.98
43701;BME280;58809;47.984;7.964;2023-12-14T12:15:47;97287.50;;;15.51;64.09
43701;BME280;58809;47.984;7.964;2023-12-14T12:18:49;97281.34;;;15.50;64.00
43701;BME280;58809;47.984;7.964;2023-12-14T12:21:54;97293.63;;;15.51;64.02
43701;BME280;58809;47.984;7.964;2023-12-14T12:24:55;97289.16;;;15.52;64.00
43701;BME280;58809;47.984;7.964;2023-12-14T12:28:12;97293.63;;;15.51;63.84
43701;BME280;58809;47.984;7.964;2023-12-14T12:31:14;97297.16;;;15.52;63.85
43701;BME280;58809;47.984;7.964;2023-12-14T12:34:15;97299.81;;;15.52;64.17
43701;BME280;58809;47.984;7.964;2023-12-14T12:37:17;97297.16;;;15.52;64.04
43701;BME280;58809;47.984;7.964;2023-12-14T12:40:22;97296.09;;;15.53;63.90
43701;BME280;58809;47.984;7.964;2023-12-14T12:43:25;97303.09;;;15.54;63.71
43701;BME280;58809;47.984;7.964;2023-12-14T12:46:26;97305.75;;;15.54;63.75
43701;BME280;58809;47.984;7.964;2023-12-14T12:49:28;97310.88;;;15.55;63.90
43701;BME280;58809;47.984;7.964;2023-12-14T12:52:30;97304.72;;;15.55;63.89
43701;BME280;58809;47.984;7.964;2023-12-14T12:55:31;97306.56;;;15.54;63.79
43701;BME280;58809;47.984;7.964;2023-12-14T12:58:33;97313.56;;;15.55;63.72
43701;BME280;58809;47.984;7.964;2023-12-14T13:01:34;97317.03;;;15.56;63.92
43701;BME280;58809;47.984;7.964;2023-12-14T13:04:36;97314.16;;;15.57;63.70
43701;BME280;58809;47.984;7.964;2023-12-14T13:07:39;97315.16;;;15.56;63.62
43701;BME280;58809;47.984;7.964;2023-12-14T13:10:40;97316.22;;;15.55;63.73
43701;BME280;58809;47.984;7.964;2023-12-14T13:13:42;97326.88;;;15.55;63.63
43701;BME280;58809;47.984;7.964;2023-12-14T13:16:45;97324.22;;;15.55;63.47
43701;BME280;58809;47.984;7.964;2023-12-14T13:19:46;97329.56;;;15.55;63.56
43701;BME280;58809;47.984;7.964;2023-12-14T13:22:48;97332.22;;;15.55;63.51
43701;BME280;58809;47.984;7.964;2023-12-14T13:25:50;97328.72;;;15.55;63.60
43701;BME280;58809;47.984;7.964;2023-12-14T13:28:52;97332.22;;;15.55;63.59
43701;BME280;58809;47.984;7.964;2023-12-14T13:31:54;97333.84;;;15.56;63.62
43701;BME280;58809;47.984;7.964;2023-12-14T13:34:55;97340.22;;;15.55;63.56
43701;BME280;58809;47.984;7.964;2023-12-14T13:37:57;97341.03;;;15.56;63.68
43701;BME280;58809;47.984;7.964;2023-12-14T13:40:59;97341.84;;;15.56;63.55
43701;BME280;58809;47.984;7.964;2023-12-14T13:44:00;97349.84;;;15.56;63.61
43701;BME280;58809;47.984;7.964;2023-12-14T13:47:03;97350.69;;;15.57;63.51
43701;BME280;58809;47.984;7.964;2023-12-14T13:50:06;97360.50;;;15.56;63.55
43701;BME280;58809;47.984;7.964;2023-12-14T13:53:08;97365.03;;;15.56;63.65
43701;BME280;58809;47.984;7.964;2023-12-14T13:56:09;97366.44;;;15.58;63.33
43701;BME280;58809;47.984;7.964;2023-12-14T13:59:11;97372.63;;;15.59;63.58
43701;BME280;58809;47.984;7.964;2023-12-14T14:02:13;97377.13;;;15.58;63.33
43701;BME280;58809;47.984;7.964;2023-12-14T14:05:15;97384.09;;;15.59;63.39
43701;BME280;58809;47.984;7.964;2023-12-14T14:08:17;97391.31;;;15.59;63.32
43701;BME280;58809;47.984;7.964;2023-12-14T14:11:18;97397.44;;;15.59;63.32
43701;BME280;58809;47.984;7.964;2023-12-14T14:14:21;97400.31;;;15.58;63.42
43701;BME280;58809;47.984;7.964;2023-12-14T14:17:24;97412.84;;;15.57;63.47
43701;BME280;58809;47.984;7.964;2023-12-14T14:20:26;97417.56;;;15.55;63.63
43701;BME280;58809;47.984;7.964;2023-12-14T14:23:28;97420.22;;;15.55;63.54
43701;BME280;58809;47.984;7.964;2023-12-14T14:26:29;97431.91;;;15.54;63.48
43701;BME280;58809;47.984;7.964;2023-12-14T14:29:31;97429.44;;;15.53;63.61
43701;BME280;58809;47.984;7.964;2023-12-14T14:32:33;97440.97;;;15.53;63.60
43701;BME280;58809;47.984;7.964;2023-12-14T14:35:37;97446.28;;;15.53;63.40
43701;BME280;58809;47.984;7.964;2023-12-14T14:38:56;97449.97;;;15.52;63.66
43701;BME280;58809;47.984;7.964;2023-12-14T14:41:59;97455.50;;;15.51;63.38
43701;BME280;58809;47.984;7.964;2023-12-14T14:45:01;97456.56;;;15.50;63.70
43701;BME280;58809;47.984;7.964;2023-12-14T14:48:03;97468.03;;;15.50;63.67
43701;BME280;58809;47.984;7.964;2023-12-14T14:51:07;97481.38;;;15.50;63.68
43701;BME280;58809;47.984;7.964;2023-12-14T14:54:10;97489.38;;;15.50;63.68
43701;BME280;58809;47.984;7.964;2023-12-14T14:57:12;97484.03;;;15.50;63.49
43701;BME280;58809;47.984;7.964;2023-12-14T15:00:14;97484.03;;;15.50;63.50
43701;BME280;58809;47.984;7.964;2023-12-14T15:03:17;97500.03;;;15.50;63.53
43701;BME280;58809;47.984;7.964;2023-12-14T15:06:18;97502.69;;;15.50;63.62
43701;BME280;58809;47.984;7.964;2023-12-14T15:09:20;97504.31;;;15.51;63.53
43701;BME280;58809;47.984;7.964;2023-12-14T15:12:22;97507.00;;;15.51;63.39
43701;BME280;58809;47.984;7.964;2023-12-14T15:15:23;97512.31;;;15.51;63.56
43701;BME280;58809;47.984;7.964;2023-12-14T15:18:25;97513.38;;;15.50;63.42
43701;BME280;58809;47.984;7.964;2023-12-14T15:21:27;97520.56;;;15.50;63.41
43701;BME280;58809;47.984;7.964;2023-12-14T15:24:28;97521.16;;;15.52;63.59
43701;BME280;58809;47.984;7.964;2023-12-14T15:27:30;97533.66;;;15.51;63.37
43701;BME280;58809;47.984;7.964;2023-12-14T15:30:34;97547.22;;;15.50;63.44
43701;BME280;58809;47.984;7.964;2023-12-14T15:33:35;97566.72;;;15.50;63.57
43701;BME280;58809;47.984;7.964;2023-12-14T15:36:37;97581.66;;;15.51;63.54
43701;BME280;58809;47.984;7.964;2023-12-14T15:39:39;97585.38;;;15.50;63.35
43701;BME280;58809;47.984;7.964;2023-12-14T15:42:41;97590.72;;;15.50;63.38
43701;BME280;58809;47.984;7.964;2023-12-14T15:45:42;97604.03;;;15.50;63.45
43701;BME280;58809;47.984;7.964;2023-12-14T15:48:45;97599.72;;;15.49;63.56
43701;BME280;58809;47.984;7.964;2023-12-14T15:51:48;97606.72;;;15.50;63.54
43701;BME280;58809;47.984;7.964;2023-12-14T15:54:49;97609.38;;;15.50;63.67
43701;BME280;58809;47.984;7.964;2023-12-14T15:57:51;97612.03;;;15.50;63.30
43701;BME280;58809;47.984;7.964;2023-12-14T16:00:53;97611.44;;;15.48;63.54
43701;BME280;58809;47.984;7.964;2023-12-14T16:03:54;97613.91;;;15.50;63.58
43701;BME280;58809;47.984;7.964;2023-12-14T16:06:56;97617.38;;;15.50;63.26
43701;BME280;58809;47.984;7.964;2023-12-14T16:09:58;97623.72;;;15.49;63.32
43701;BME280;58809;47.984;7.964;2023-12-14T16:12:59;97644.06;;;15.50;63.33
43701;BME280;58809;47.984;7.964;2023-12-14T16:16:01;97647.53;;;15.51;63.21